Alameda, OR

5:54 PM PDT on May 22, 2015 (GMT -0700)
Concordia University | | Change Station
CLOSE
Current Station
Personal Weather Station
Location: Portland, OR
Elevation: 141 ft
Nearby Weather Stations

Elev 141 ft 45.57 °N, 122.64 °W | Updated 6 seconds ago

Overcast
Overcast
59.5 °F
Feels Like 59.5 °F
N
2.9
Wind Variable Wind from SSW
Gusts 4.0 mph

Today
High -- | Low -- °F
--% Chance of Precip.
Yesterday
High -- | Low -- °F
Precip. -- in
5:32 AM 8:42 PM
Waxing Crescent, 25% visible
Pressure 30.05 in
Visibility 10.0 miles
Clouds Mostly Cloudy 2700 ft
Overcast 4000 ft
Dew Point 54 °F
Humidity 83%
Rainfall 0.00 in
Snow Depth Not available.
UV 1 out of 12
Pollen 6.20 out of 12
Air Quality Not available.
Flu Activity No Activity
SPECI KPDX 230045Z 21003KT 10SM BKN027 OVC040 15/12 A3005 RMK AO2 T01500117

More Conditions Fewer Conditions

Pressure 30.05 in
Visibility 10.0 miles
Clouds Mostly Cloudy 2700 ft
Overcast 4000 ft
Dew Point 54 °F
Humidity 83%
Rainfall 0.00 in
Snow Depth Not available.
UV 1 out of 12
Pollen 6.20 out of 12
Air Quality Not available.
Flu Activity No Activity
SPECI KPDX 230045Z 21003KT 10SM BKN027 OVC040 15/12 A3005 RMK AO2 T01500117

More Conditions Fewer Conditions

10-Day Weather Forecast

Almanac

Astronomy

May. 22, 2015 Rise Set
Actual Time
Civil Twilight
Nautical Twilight
Astronomical Twilight
Moon
Length of Visible Light
Length of Day
Tomorrow will be .
, % of the Moon is Illuminated

Today's Extremes

State Highs State Lows

Community

WunderPhotos

Upload Photos

1,823,350 photos uploaded!

WunderBlogs® & News

Nearby

Air Quality

  Air Quality AQ Index Pollutant
Not available.

Snow Depth

Station Depth Elevation

Earthquake Activity

City Distance Mag. Time & Date
Minimum magnitude displayed is 2.5.

Coastal Water Temperatures

Place Temperature

Stations

Nearby Weather Stations

Station Location Temp. Windchill Dew Point Humidity Wind Precip. Elev Updated Type